Time;durP1;ratioP1;P1;durP2;ratioP2;P2;SDS_P1;SDS_P2;PMS_P1;PMS_P2;Temp;Humidity;BMP_temperature;BMP_pressure;BME280_temperature;BME280_humidity;BME280_pressure;Samples;Min_cycle;Max_cycle;Signal;HPM_P1;HPM_P2
2022/06/05 00:01:53;;;;;;;7.07;3.22;;;19.20;67.40;;;;;;5016753;28;20029;-78
2022/06/05 00:04:28;;;;;;;6.90;3.25;;;19.20;67.40;;;;;;5034509;28;20400;-80
2022/06/05 00:07:17;;;;;;;10.45;4.05;;;19.20;67.50;;;;;;5016615;28;20436;-80
2022/06/05 00:10:09;;;;;;;6.70;3.17;;;19.10;67.60;;;;;;5016397;28;20072;-76
2022/06/05 00:13:14;;;;;;;6.47;3.78;;;19.00;67.70;;;;;;5014379;28;20496;-81
2022/06/05 00:15:39;;;;;;;6.13;3.60;;;19.10;68.00;;;;;;5016414;28;20112;-78
2022/06/05 00:18:05;;;;;;;8.73;3.55;;;19.00;67.90;;;;;;5016326;28;20115;-77
2022/06/05 00:20:31;;;;;;;7.88;3.88;;;18.90;68.50;;;;;;5016427;28;20037;-77
2022/06/05 00:22:58;;;;;;;8.82;4.10;;;18.90;68.40;;;;;;5016355;28;20029;-78
2022/06/05 00:25:52;;;;;;;6.78;4.50;;;18.90;68.20;;;;;;5033799;28;20029;-77
2022/06/05 00:28:30;;;;;;;8.23;4.05;;;18.90;68.30;;;;;;5016155;28;20009;-78
2022/06/05 00:31:30;;;;;;;7.97;3.70;;;18.90;68.50;;;;;;5034174;28;20354;-77
2022/06/05 00:33:57;;;;;;;6.47;3.35;;;18.90;68.70;;;;;;5015884;28;20036;-78
2022/06/05 00:36:48;;;;;;;7.72;3.60;;;18.80;68.50;;;;;;5016344;28;20036;-79
2022/06/05 00:39:26;;;;;;;7.50;4.15;;;18.80;68.80;;;;;;5016177;28;20091;-78
2022/06/05 00:42:02;;;;;;;10.15;4.22;;;18.80;69.20;;;;;;5016043;28;20112;-80
2022/06/05 00:44:39;;;;;;;6.95;3.30;;;18.70;69.10;;;;;;5015907;28;20032;-78
2022/06/05 00:47:07;;;;;;;8.80;4.40;;;18.70;69.00;;;;;;5033572;28;20025;-80
2022/06/05 00:49:45;;;;;;;7.93;4.47;;;18.70;69.20;;;;;;5015861;28;20036;-80
2022/06/05 00:52:13;;;;;;;6.50;3.50;;;18.60;69.20;;;;;;5015831;28;20017;-76
2022/06/05 00:54:39;;;;;;;8.52;3.83;;;18.60;69.60;;;;;;5015752;28;20048;-82
2022/06/05 00:57:10;;;;;;;7.38;4.18;;;18.60;69.60;;;;;;5016465;28;20100;-82
2022/06/05 00:59:38;;;;;;;9.48;4.93;;;18.50;69.60;;;;;;5016500;28;20366;-83
2022/06/05 01:02:04;;;;;;;7.72;4.35;;;18.40;69.80;;;;;;5017438;28;20091;-83
2022/06/05 01:04:32;;;;;;;8.30;4.70;;;18.40;70.30;;;;;;5017081;28;20034;-81
2022/06/05 01:06:58;;;;;;;11.52;4.28;;;18.40;70.30;;;;;;5016075;28;20109;-81
2022/06/05 01:09:23;;;;;;;9.95;4.40;;;18.40;70.20;;;;;;5000420;28;20061;-85
2022/06/05 01:12:23;;;;;;;7.20;3.97;;;18.30;70.20;;;;;;4999999;28;20052;-82
2022/06/05 01:15:11;;;;;;;10.85;3.88;;;18.30;70.50;;;;;;5016166;28;20033;-80
2022/06/05 01:17:46;;;;;;;12.65;5.15;;;18.30;70.60;;;;;;5015916;28;20528;-82
2022/06/05 01:20:20;;;;;;;9.85;4.47;;;18.30;70.50;;;;;;5016096;28;20445;-82
2022/06/05 01:23:13;;;;;;;8.45;4.45;;;18.20;71.00;;;;;;5016348;28;20029;-80
2022/06/05 01:25:50;;;;;;;14.95;5.00;;;18.20;71.00;;;;;;5017281;28;20504;-82
2022/06/05 01:28:22;;;;;;;8.05;4.25;;;18.20;71.10;;;;;;5033219;28;20074;-81
2022/06/05 01:30:50;;;;;;;8.40;4.32;;;18.10;71.10;;;;;;5016814;28;20074;-82
2022/06/05 01:33:25;;;;;;;9.07;4.07;;;18.10;71.10;;;;;;5015077;28;20112;-84
2022/06/05 01:36:32;;;;;;;9.25;4.32;;;18.00;71.30;;;;;;5033531;28;20032;-82
2022/06/05 01:39:00;;;;;;;8.65;4.22;;;18.00;71.60;;;;;;5014961;28;20469;-82
2022/06/05 01:41:33;;;;;;;8.82;4.40;;;18.00;71.80;;;;;;5033356;28;20064;-82
2022/06/05 01:44:03;;;;;;;6.60;4.15;;;17.90;71.70;;;;;;5015817;28;20026;-83
2022/06/05 01:46:34;;;;;;;9.43;4.70;;;17.90;72.00;;;;;;5015621;28;20159;-83
2022/06/05 01:49:10;;;;;;;10.25;4.95;;;17.90;72.30;;;;;;5033398;28;20025;-80
2022/06/05 01:51:54;;;;;;;6.90;3.97;;;17.90;72.30;;;;;;5015470;28;20025;-83
2022/06/05 01:54:26;;;;;;;6.85;4.10;;;17.90;72.50;;;;;;5015536;28;20056;-81
2022/06/05 01:56:56;;;;;;;10.25;4.35;;;17.80;72.70;;;;;;5033226;28;20026;-82
2022/06/05 01:59:36;;;;;;;7.80;4.50;;;17.80;72.70;;;;;;5015382;28;20041;-82
2022/06/05 02:02:05;;;;;;;7.35;4.43;;;17.70;73.00;;;;;;5033086;28;20082;-79
2022/06/05 02:04:48;;;;;;;11.02;5.95;;;17.70;73.00;;;;;;5033064;28;20033;-79
2022/06/05 02:07:23;;;;;;;10.55;5.35;;;17.70;73.00;;;;;;5015399;28;20409;-82
2022/06/05 02:09:58;;;;;;;9.00;5.65;;;17.70;73.10;;;;;;5015102;28;20109;-81
2022/06/05 02:12:24;;;;;;;7.75;4.80;;;17.70;73.30;;;;;;5015131;28;20022;-81
2022/06/05 02:14:50;;;;;;;9.63;5.45;;;17.60;73.40;;;;;;4998854;28;20030;-77
2022/06/05 02:17:16;;;;;;;10.73;5.60;;;17.60;74.00;;;;;;4999077;28;20057;-79
2022/06/05 02:19:43;;;;;;;15.30;6.05;;;17.60;74.40;;;;;;5036281;28;20040;-80
2022/06/05 02:22:32;;;;;;;8.68;4.82;;;17.50;74.10;;;;;;5002348;28;20548;-81
2022/06/05 02:24:58;;;;;;;10.30;5.68;;;17.50;74.60;;;;;;5018072;28;20045;-78
2022/06/05 02:27:25;;;;;;;9.05;5.30;;;17.50;74.60;;;;;;5018431;28;20033;-79
2022/06/05 02:29:52;;;;;;;10.73;5.40;;;17.40;75.10;;;;;;5001978;28;20030;-79
2022/06/05 02:32:40;;;;;;;13.68;5.85;;;17.40;75.70;;;;;;5018257;28;20113;-80
2022/06/05 02:35:51;;;;;;;12.32;6.18;;;17.30;75.40;;;;;;5036003;28;20049;-80
2022/06/05 02:38:36;;;;;;;8.65;5.00;;;17.30;75.70;;;;;;4977999;28;20034;-78
2022/06/05 02:41:07;;;;;;;12.85;6.43;;;17.20;75.70;;;;;;4976327;28;20026;-80
2022/06/05 02:47:12;;;;;;;9.75;5.40;;;17.10;75.80;;;;;;5035800;28;20435;-80
2022/06/05 02:50:02;;;;;;;9.90;5.63;;;17.10;76.20;;;;;;5015065;28;20022;-78
2022/06/05 02:52:30;;;;;;;9.38;5.47;;;17.00;76.10;;;;;;5018390;28;20068;-81
2022/06/05 02:55:01;;;;;;;22.90;7.35;;;17.00;76.20;;;;;;5001908;28;20109;-81
2022/06/05 02:57:26;;;;;;;12.63;6.95;;;17.00;77.10;;;;;;5018002;28;20447;-82
2022/06/05 02:59:52;;;;;;;11.90;6.65;;;17.00;77.20;;;;;;5002375;28;20121;-82
2022/06/05 03:05:03;;;;;;;12.00;6.75;;;16.90;77.30;;;;;;5013998;28;20009;-84
2022/06/05 03:07:28;;;;;;;13.80;6.93;;;16.90;77.60;;;;;;5001730;28;20030;-81
2022/06/05 03:09:54;;;;;;;10.60;6.60;;;16.90;77.50;;;;;;5017312;28;20030;-78
2022/06/05 03:12:19;;;;;;;11.38;7.35;;;16.90;77.60;;;;;;5001120;28;20493;-79
2022/06/05 03:14:45;;;;;;;11.70;7.13;;;16.80;78.20;;;;;;5017697;28;20026;-80
2022/06/05 03:17:11;;;;;;;9.43;6.30;;;16.80;78.50;;;;;;5017621;28;20029;-80
2022/06/05 03:19:36;;;;;;;11.02;7.00;;;16.80;78.10;;;;;;5001078;28;20029;-81
2022/06/05 03:22:02;;;;;;;10.77;6.45;;;16.70;78.10;;;;;;5001510;28;20022;-84
2022/06/05 03:24:28;;;;;;;13.25;7.30;;;16.70;78.10;;;;;;5001709;28;20025;-82
2022/06/05 03:26:54;;;;;;;11.23;6.93;;;16.70;78.50;;;;;;5017623;28;20102;-82
2022/06/05 03:29:21;;;;;;;12.32;6.85;;;16.70;78.70;;;;;;5000847;28;20547;-81
2022/06/05 03:31:46;;;;;;;12.25;6.57;;;16.70;78.80;;;;;;5001254;28;20124;-83
2022/06/05 03:34:12;;;;;;;12.27;6.85;;;16.60;78.60;;;;;;5017450;28;20106;-84
2022/06/05 03:36:37;;;;;;;10.95;6.80;;;16.60;78.90;;;;;;5001324;28;20033;-82
2022/06/05 03:39:04;;;;;;;10.65;7.22;;;16.60;79.00;;;;;;5017049;28;20033;-82
2022/06/05 03:41:30;;;;;;;12.80;6.93;;;16.60;79.00;;;;;;5034890;28;20055;-83
2022/06/05 03:43:56;;;;;;;14.63;6.97;;;16.60;79.20;;;;;;5000804;28;20519;-81
2022/06/05 03:46:22;;;;;;;11.32;7.22;;;16.60;79.20;;;;;;5000835;28;20021;-83
2022/06/05 03:48:47;;;;;;;12.13;7.25;;;16.60;79.20;;;;;;5001123;28;20053;-83
2022/06/05 03:51:20;;;;;;;11.77;6.90;;;16.60;79.20;;;;;;5000698;28;20075;-81
2022/06/05 03:53:46;;;;;;;11.80;7.38;;;16.60;79.40;;;;;;5017065;28;20025;-82
2022/06/05 03:56:14;;;;;;;13.85;7.10;;;16.60;79.40;;;;;;5017265;28;20049;-82
2022/06/05 03:58:40;;;;;;;13.25;7.38;;;16.60;79.50;;;;;;5016894;28;20084;-83
2022/06/05 04:01:10;;;;;;;10.35;6.10;;;16.60;79.60;;;;;;5017049;28;20045;-82
2022/06/05 04:03:37;;;;;;;10.43;6.53;;;16.60;79.60;;;;;;5016886;28;20079;-82
2022/06/05 04:06:11;;;;;;;11.40;6.63;;;16.60;79.70;;;;;;5035133;28;20523;-83
2022/06/05 04:08:38;;;;;;;10.95;5.97;;;16.60;79.80;;;;;;5016876;28;20026;-82
2022/06/05 04:11:09;;;;;;;19.10;8.10;;;16.60;79.90;;;;;;5016750;28;20028;-82
2022/06/05 04:13:34;;;;;;;10.45;6.78;;;16.60;79.90;;;;;;5034108;28;20030;-80
2022/06/05 04:16:01;;;;;;;13.73;6.85;;;16.60;79.80;;;;;;5016671;28;20036;-80
2022/06/05 04:18:27;;;;;;;10.52;6.25;;;16.60;79.80;;;;;;5016642;28;20168;-82
2022/06/05 04:20:52;;;;;;;13.57;6.90;;;16.60;79.90;;;;;;5016117;28;20439;-82
2022/06/05 04:23:18;;;;;;;10.98;7.05;;;16.60;80.20;;;;;;5016356;28;20116;-82
2022/06/05 04:25:45;;;;;;;11.85;6.95;;;16.60;80.30;;;;;;5034212;28;20025;-83
2022/06/05 04:28:11;;;;;;;13.55;7.32;;;16.70;80.10;;;;;;5016381;28;20520;-83
2022/06/05 04:30:40;;;;;;;12.35;7.47;;;16.70;80.10;;;;;;5016255;28;20029;-82
2022/06/05 04:33:06;;;;;;;10.55;6.88;;;16.70;80.10;;;;;;5016792;28;20026;-83
2022/06/05 04:35:34;;;;;;;10.60;6.80;;;16.70;80.20;;;;;;5016200;28;20026;-79
2022/06/05 04:37:59;;;;;;;12.80;7.15;;;16.80;80.30;;;;;;5016056;28;20025;-81
2022/06/05 04:40:26;;;;;;;13.10;7.95;;;16.80;80.30;;;;;;5032651;28;20394;-80
2022/06/05 04:42:53;;;;;;;11.65;6.60;;;16.80;80.30;;;;;;5033602;28;20421;-80
2022/06/05 04:45:19;;;;;;;11.13;6.63;;;16.80;80.30;;;;;;5033459;28;20025;-83
2022/06/05 04:47:46;;;;;;;10.68;6.50;;;16.80;80.20;;;;;;5015960;28;20064;-83
2022/06/05 04:50:12;;;;;;;11.60;7.28;;;16.90;80.50;;;;;;5015868;28;20060;-82
2022/06/05 04:52:37;;;;;;;13.45;7.85;;;16.90;80.30;;;;;;5015450;28;20021;-82
2022/06/05 04:55:04;;;;;;;12.18;7.35;;;16.90;80.50;;;;;;5015572;28;20055;-82
2022/06/05 04:57:29;;;;;;;11.48;7.07;;;16.90;80.20;;;;;;5015613;28;20025;-81
2022/06/05 04:59:55;;;;;;;10.80;7.05;;;16.90;80.40;;;;;;5015856;28;20026;-82
2022/06/05 05:02:21;;;;;;;11.43;7.70;;;17.00;81.10;;;;;;5015641;28;20030;-83
2022/06/05 05:04:47;;;;;;;10.35;6.72;;;17.00;80.30;;;;;;5015477;28;20512;-82
2022/06/05 05:07:16;;;;;;;11.40;7.32;;;17.00;80.20;;;;;;5015635;28;20025;-83
2022/06/05 05:09:42;;;;;;;12.57;6.57;;;17.00;80.30;;;;;;5033317;28;20100;-82
2022/06/05 05:12:10;;;;;;;13.45;7.15;;;17.00;80.20;;;;;;5032547;28;20100;-83
2022/06/05 05:14:38;;;;;;;14.32;7.30;;;17.10;80.10;;;;;;5015777;28;20025;-82
2022/06/05 05:17:04;;;;;;;9.20;6.45;;;17.10;80.10;;;;;;5015775;28;20120;-83
2022/06/05 05:19:29;;;;;;;10.80;6.88;;;17.10;80.00;;;;;;5015858;28;20053;-82
2022/06/05 05:21:55;;;;;;;11.20;7.07;;;17.10;80.00;;;;;;5015647;28;20375;-82
2022/06/05 05:24:21;;;;;;;10.07;6.25;;;17.10;79.90;;;;;;5031934;28;20030;-82
2022/06/05 05:26:46;;;;;;;9.20;6.30;;;17.10;79.80;;;;;;5015588;28;20461;-83
2022/06/05 05:29:12;;;;;;;11.10;6.75;;;17.20;79.80;;;;;;5015521;28;20028;-82
2022/06/05 05:31:40;;;;;;;10.75;6.80;;;17.20;79.80;;;;;;5015713;28;20576;-83
2022/06/05 05:34:07;;;;;;;11.90;6.82;;;17.20;79.60;;;;;;5015930;28;20063;-81
2022/06/05 05:36:33;;;;;;;13.07;7.20;;;17.20;79.40;;;;;;5015262;28;20490;-80
2022/06/05 05:44:29;;;;;;;10.00;6.43;;;17.30;79.40;;;;;;5044946;28;20106;-83
2022/06/05 05:46:54;;;;;;;14.30;7.32;;;17.30;79.30;;;;;;5034651;28;20380;-82
2022/06/05 05:49:20;;;;;;;13.00;7.10;;;17.30;79.20;;;;;;5034409;28;20025;-83
2022/06/05 05:51:46;;;;;;;10.52;7.32;;;17.30;79.20;;;;;;5034382;28;20017;-83
2022/06/05 05:54:11;;;;;;;11.02;7.68;;;17.30;79.10;;;;;;5038331;28;20025;-82
2022/06/05 05:56:38;;;;;;;12.35;7.50;;;17.30;79.10;;;;;;5055196;28;20090;-83
2022/06/05 05:59:04;;;;;;;9.60;6.47;;;17.30;79.10;;;;;;5038051;28;20094;-83
2022/06/05 06:01:29;;;;;;;9.98;6.53;;;17.40;79.00;;;;;;5054508;28;20033;-83
2022/06/05 06:03:55;;;;;;;9.77;6.68;;;17.40;79.10;;;;;;5035070;28;20029;-83
2022/06/05 06:06:27;;;;;;;12.75;7.38;;;17.40;79.00;;;;;;5054736;28;20024;-81
2022/06/05 06:08:53;;;;;;;11.45;6.45;;;17.40;79.00;;;;;;5037954;28;20025;-80
2022/06/05 06:11:19;;;;;;;11.10;6.85;;;17.40;79.00;;;;;;5037906;28;20028;-80
2022/06/05 06:13:45;;;;;;;12.07;7.10;;;17.40;79.10;;;;;;5054851;28;20057;-81
2022/06/05 06:16:11;;;;;;;11.55;6.68;;;17.50;79.10;;;;;;5054382;28;20112;-80
2022/06/05 06:18:36;;;;;;;11.80;7.78;;;17.60;79.10;;;;;;5038165;28;20025;-80
2022/06/05 06:21:03;;;;;;;11.95;7.53;;;17.50;79.60;;;;;;5038157;28;20034;-81
2022/06/05 06:23:28;;;;;;;10.95;6.68;;;17.60;78.90;;;;;;5037710;28;20048;-80
2022/06/05 06:25:55;;;;;;;12.63;7.72;;;17.60;78.80;;;;;;5008335;28;20417;-81
2022/06/05 06:28:20;;;;;;;11.15;6.65;;;17.70;78.90;;;;;;5031473;28;20024;-81
2022/06/05 06:30:47;;;;;;;10.15;6.40;;;17.70;78.80;;;;;;5000676;28;20108;-81
2022/06/05 06:33:13;;;;;;;11.90;7.10;;;17.70;78.80;;;;;;5000891;28;20033;-82
2022/06/05 06:35:40;;;;;;;10.10;6.65;;;17.80;78.80;;;;;;5033150;28;20025;-77
2022/06/05 06:38:06;;;;;;;10.27;6.28;;;17.80;78.70;;;;;;5017594;28;20457;-81
2022/06/05 06:40:32;;;;;;;9.00;6.10;;;17.90;78.70;;;;;;5034821;28;20029;-82
2022/06/05 06:42:58;;;;;;;8.95;6.13;;;17.90;78.60;;;;;;5019353;28;20079;-82
2022/06/05 06:45:24;;;;;;;10.77;6.68;;;18.00;78.50;;;;;;5031425;28;20033;-81
2022/06/05 06:47:50;;;;;;;10.07;6.80;;;18.00;78.40;;;;;;5037888;28;20021;-82
2022/06/05 06:50:16;;;;;;;10.00;5.93;;;18.10;78.30;;;;;;5038193;28;20442;-81
2022/06/05 06:52:42;;;;;;;9.73;6.43;;;18.10;78.20;;;;;;5037893;28;20029;-80
2022/06/05 06:55:12;;;;;;;9.80;6.28;;;18.20;78.10;;;;;;5055552;28;20051;-82
2022/06/05 06:57:38;;;;;;;10.27;5.80;;;18.30;78.00;;;;;;5026315;28;20390;-76
2022/06/05 07:00:05;;;;;;;10.77;5.85;;;18.40;78.00;;;;;;5017855;28;20022;-80
2022/06/05 07:02:31;;;;;;;8.18;5.72;;;18.50;78.00;;;;;;5017531;28;20029;-79
2022/06/05 07:04:57;;;;;;;10.50;5.80;;;18.50;78.00;;;;;;5016745;28;20060;-80
2022/06/05 07:07:22;;;;;;;7.82;5.80;;;18.60;77.80;;;;;;5034352;28;20382;-79
2022/06/05 07:09:48;;;;;;;7.60;5.78;;;18.70;77.70;;;;;;5035604;28;20100;-79
2022/06/05 07:12:14;;;;;;;9.45;5.70;;;18.80;77.60;;;;;;5017664;28;20025;-80
2022/06/05 07:14:39;;;;;;;7.75;5.10;;;18.90;77.30;;;;;;5017552;28;20022;-80
2022/06/05 07:17:05;;;;;;;9.50;5.13;;;19.00;77.20;;;;;;5017507;28;20424;-80
2022/06/05 07:19:31;;;;;;;6.30;4.32;;;19.10;77.00;;;;;;5035218;28;20060;-81
2022/06/05 07:21:56;;;;;;;7.70;5.18;;;19.20;76.80;;;;;;5017805;28;20481;-79
2022/06/05 07:24:22;;;;;;;9.38;5.82;;;19.30;76.60;;;;;;5017800;28;20538;-80
2022/06/05 07:26:48;;;;;;;11.80;5.30;;;19.40;76.40;;;;;;5037214;28;20445;-81
2022/06/05 07:29:14;;;;;;;9.70;5.47;;;19.50;76.00;;;;;;5037154;28;20024;-80
2022/06/05 07:31:40;;;;;;;9.63;5.00;;;19.60;75.80;;;;;;5036985;28;20473;-79
2022/06/05 07:34:08;;;;;;;8.73;5.28;;;19.70;75.40;;;;;;5037062;28;20052;-79
2022/06/05 07:36:33;;;;;;;7.53;4.70;;;19.80;75.20;;;;;;5037009;28;20489;-81
2022/06/05 07:39:02;;;;;;;9.55;5.55;;;19.90;75.00;;;;;;5053992;28;20039;-79
2022/06/05 07:41:31;;;;;;;8.82;5.05;;;19.90;74.70;;;;;;5037303;28;20021;-82
2022/06/05 07:43:58;;;;;;;7.80;5.28;;;20.00;74.70;;;;;;5036901;28;20361;-79
2022/06/05 07:46:24;;;;;;;6.78;4.93;;;20.10;74.30;;;;;;5036983;28;20380;-83
2022/06/05 07:48:50;;;;;;;7.53;4.72;;;20.10;73.80;;;;;;5053501;28;20021;-82
2022/06/05 07:56:50;;;;;;;9.80;4.40;;;20.40;73.20;;;;;;5054899;28;20048;-79
2022/06/05 07:59:16;;;;;;;5.90;4.13;;;20.50;73.10;;;;;;5053255;28;20048;-77
2022/06/05 08:01:41;;;;;;;7.70;3.90;;;20.50;72.90;;;;;;5036733;28;20476;-79
2022/06/05 08:04:07;;;;;;;11.27;4.82;;;20.60;72.70;;;;;;5034829;28;20039;-78
2022/06/05 08:06:34;;;;;;;7.95;4.95;;;20.70;72.50;;;;;;5016658;28;20061;-77
2022/06/05 08:09:04;;;;;;;6.25;4.00;;;20.80;72.20;;;;;;5011976;28;20032;-77
2022/06/05 08:11:30;;;;;;;6.82;4.50;;;20.90;72.00;;;;;;5029354;28;20068;-79
2022/06/05 08:13:56;;;;;;;6.45;4.30;;;21.10;72.40;;;;;;5003597;28;20021;-80
2022/06/05 08:16:21;;;;;;;7.28;4.00;;;21.20;71.50;;;;;;5016266;28;20029;-81
2022/06/05 08:18:50;;;;;;;7.18;3.20;;;21.30;71.30;;;;;;5016224;28;20112;-81
2022/06/05 08:21:16;;;;;;;9.00;3.72;;;21.40;71.10;;;;;;5016464;28;20030;-80
2022/06/05 08:23:42;;;;;;;7.50;3.63;;;21.50;70.70;;;;;;5000029;28;20043;-80
2022/06/05 08:26:08;;;;;;;5.72;3.97;;;21.60;70.40;;;;;;5016367;28;20022;-79
2022/06/05 08:28:34;;;;;;;7.03;4.13;;;21.70;70.10;;;;;;4999817;28;20542;-82
2022/06/05 08:30:59;;;;;;;7.03;4.25;;;21.80;69.90;;;;;;5032825;28;20049;-79
2022/06/05 08:33:25;;;;;;;5.75;3.85;;;21.80;69.50;;;;;;5016283;28;20508;-79
2022/06/05 08:35:51;;;;;;;4.63;3.55;;;21.90;69.30;;;;;;4999798;28;20033;-84
2022/06/05 08:44:11;;;;;;;7.00;4.13;;;22.20;68.70;;;;;;5033061;28;20501;-81
2022/06/05 08:46:52;;;;;;;5.75;3.70;;;22.30;68.50;;;;;;5033129;28;20021;-81
2022/06/05 08:49:46;;;;;;;7.53;3.95;;;22.40;68.20;;;;;;5016300;28;20041;-81
2022/06/05 08:52:29;;;;;;;5.43;3.92;;;22.50;68.10;;;;;;5034366;28;20030;-81
2022/06/05 08:55:17;;;;;;;5.68;3.60;;;22.60;67.90;;;;;;5016311;28;20030;-80
2022/06/05 08:58:04;;;;;;;6.32;3.05;;;22.70;67.60;;;;;;5034061;28;20040;-83
2022/06/05 09:00:42;;;;;;;6.43;3.30;;;22.80;67.60;;;;;;5035428;28;20017;-82
2022/06/05 09:03:21;;;;;;;8.68;3.78;;;22.90;68.00;;;;;;5035464;28;20035;-83
2022/06/05 09:05:51;;;;;;;8.30;3.97;;;23.00;67.00;;;;;;5035883;28;20028;-84
2022/06/05 09:08:20;;;;;;;6.05;4.20;;;23.10;66.70;;;;;;5035116;28;20032;-82
2022/06/05 09:11:00;;;;;;;6.68;4.40;;;23.30;66.60;;;;;;5035329;28;20376;-83
2022/06/05 09:13:36;;;;;;;6.32;4.13;;;23.40;66.20;;;;;;5035720;28;20346;-82
2022/06/05 09:16:04;;;;;;;5.43;3.50;;;23.60;66.20;;;;;;5035721;28;20021;-83
2022/06/05 09:18:37;;;;;;;4.80;3.80;;;23.70;65.90;;;;;;5035376;28;20025;-82
2022/06/05 09:21:12;;;;;;;7.40;3.95;;;23.80;65.60;;;;;;5053008;28;20075;-80
2022/06/05 09:23:40;;;;;;;9.18;3.53;;;23.90;65.40;;;;;;5002976;28;20470;-83
2022/06/05 09:26:30;;;;;;;7.13;3.80;;;24.00;65.30;;;;;;5015942;28;20032;-80
2022/06/05 09:29:11;;;;;;;7.95;4.50;;;24.20;65.20;;;;;;5018345;28;20470;-83
2022/06/05 09:31:39;;;;;;;7.18;4.18;;;24.30;65.00;;;;;;5037742;28;20029;-86
2022/06/05 09:34:12;;;;;;;6.72;4.03;;;24.40;64.60;;;;;;5015577;28;20476;-80
2022/06/05 09:36:41;;;;;;;5.30;3.63;;;24.40;64.30;;;;;;5002312;28;20049;-82
2022/06/05 09:39:30;;;;;;;6.30;4.00;;;24.40;64.90;;;;;;4999840;28;20079;-83
2022/06/05 09:42:23;;;;;;;9.57;4.00;;;24.50;64.10;;;;;;4999702;28;20474;-82
2022/06/05 09:45:18;;;;;;;4.75;3.67;;;24.60;64.20;;;;;;5000328;28;20030;-82
2022/06/05 09:48:23;;;;;;;6.95;3.35;;;24.60;64.10;;;;;;5027363;28;20524;-83
2022/06/05 09:50:49;;;;;;;6.80;3.60;;;24.60;64.10;;;;;;5019722;28;20474;-82
2022/06/05 09:53:21;;;;;;;5.32;3.78;;;24.60;64.00;;;;;;5003308;28;20026;-84
2022/06/05 09:56:06;;;;;;;4.60;3.60;;;24.60;63.90;;;;;;5019807;28;20471;-82
2022/06/05 09:58:31;;;;;;;5.07;3.88;;;24.60;64.50;;;;;;5019294;28;20103;-84
2022/06/05 10:01:21;;;;;;;7.40;3.78;;;24.60;63.60;;;;;;5037739;28;20026;-83
2022/06/05 10:03:48;;;;;;;7.28;3.45;;;24.60;63.50;;;;;;5019873;28;20124;-86
2022/06/05 10:06:17;;;;;;;4.57;2.97;;;24.60;63.40;;;;;;5019610;28;20083;-82
2022/06/05 10:09:06;;;;;;;4.57;3.45;;;24.60;63.50;;;;;;5033417;28;20354;-84
2022/06/05 10:12:11;;;;;;;3.67;2.95;;;24.60;63.20;;;;;;5002831;28;20038;-85
2022/06/05 10:15:06;;;;;;;4.88;3.28;;;24.60;63.20;;;;;;5037504;28;20032;-85
2022/06/05 10:17:37;;;;;;;3.83;3.03;;;24.60;63.80;;;;;;5034376;28;20684;-87
2022/06/05 10:20:28;;;;;;;7.25;3.80;;;24.60;63.00;;;;;;5015309;28;20057;-86
2022/06/05 10:23:08;;;;;;;5.28;3.55;;;24.50;62.90;;;;;;5019201;28;20486;-84
2022/06/05 10:25:52;;;;;;;3.50;2.85;;;24.50;63.10;;;;;;5019347;28;20084;-84
2022/06/05 10:28:30;;;;;;;6.75;3.60;;;24.60;63.20;;;;;;5037002;28;20028;-83
2022/06/05 10:31:22;;;;;;;4.57;3.05;;;24.60;63.20;;;;;;5019161;28;20026;-85
2022/06/05 10:33:56;;;;;;;7.95;3.35;;;24.60;63.30;;;;;;5017297;28;20056;-84
2022/06/05 10:36:25;;;;;;;4.85;3.17;;;24.60;63.30;;;;;;5036826;28;20033;-86
2022/06/05 10:39:16;;;;;;;5.35;3.25;;;24.60;63.40;;;;;;5018598;28;20385;-84
2022/06/05 10:41:47;;;;;;;3.75;2.67;;;24.50;63.30;;;;;;5018907;28;20022;-85
2022/06/05 10:44:51;;;;;;;4.30;3.13;;;24.60;63.40;;;;;;5018558;28;20026;-83
2022/06/05 10:48:01;;;;;;;6.55;3.25;;;24.50;63.40;;;;;;5038620;28;20469;-84
2022/06/05 10:50:44;;;;;;;3.72;3.15;;;24.50;63.40;;;;;;5039656;28;20030;-84
2022/06/05 10:53:10;;;;;;;4.57;3.27;;;24.50;63.40;;;;;;5021968;28;20022;-85
2022/06/05 10:56:17;;;;;;;4.38;3.20;;;24.50;63.40;;;;;;5028303;28;20295;-82
2022/06/05 10:58:53;;;;;;;4.07;2.95;;;24.50;63.40;;;;;;5017684;28;20114;-83
2022/06/05 11:02:02;;;;;;;3.17;2.60;;;24.40;63.40;;;;;;5036009;28;20025;-82
2022/06/05 11:04:48;;;;;;;3.92;3.13;;;24.50;63.60;;;;;;5031755;28;20541;-83
2022/06/05 11:07:36;;;;;;;4.00;2.90;;;24.40;63.60;;;;;;5007740;28;20234;-82
2022/06/05 11:13:43;;;;;;;6.38;3.83;;;24.40;63.80;;;;;;5013809;28;20040;-82
2022/06/05 11:16:33;;;;;;;6.15;3.50;;;24.30;63.60;;;;;;5019315;28;20028;-86
2022/06/05 11:19:28;;;;;;;5.88;4.20;;;24.30;63.70;;;;;;5039059;28;20026;-81
2022/06/05 11:21:56;;;;;;;6.22;3.47;;;24.30;63.80;;;;;;5017260;28;20025;-81
2022/06/05 11:24:49;;;;;;;4.80;3.72;;;24.30;63.80;;;;;;5017556;28;20021;-80
2022/06/05 11:27:31;;;;;;;5.53;3.50;;;24.20;63.90;;;;;;5013768;28;20470;-80
2022/06/05 11:30:13;;;;;;;4.78;3.78;;;24.20;63.90;;;;;;4997406;28;20022;-80
2022/06/05 11:32:58;;;;;;;4.60;3.75;;;24.10;64.00;;;;;;4997438;28;20014;-80
2022/06/05 11:35:42;;;;;;;5.55;3.80;;;24.00;64.10;;;;;;4997464;28;20528;-80
2022/06/05 11:38:10;;;;;;;5.50;3.40;;;24.00;64.30;;;;;;5013615;28;20033;-77
2022/06/05 11:41:12;;;;;;;6.03;3.65;;;24.00;64.40;;;;;;5003311;28;20043;-80
2022/06/05 11:43:39;;;;;;;5.20;4.22;;;24.00;64.60;;;;;;5054622;28;20025;-81
2022/06/05 11:46:11;;;;;;;4.43;3.47;;;23.90;64.60;;;;;;5036766;28;20021;-81
2022/06/05 11:48:50;;;;;;;7.60;3.15;;;23.90;64.80;;;;;;5036709;28;20071;-82
2022/06/05 11:51:26;;;;;;;5.75;3.85;;;23.90;64.70;;;;;;5036429;28;20025;-82
2022/06/05 11:54:07;;;;;;;5.72;3.42;;;23.90;64.70;;;;;;5036921;28;20025;-83
2022/06/05 11:56:40;;;;;;;6.82;3.70;;;23.90;64.70;;;;;;5054987;28;20029;-84
2022/06/05 11:59:35;;;;;;;5.20;3.27;;;23.90;64.80;;;;;;5037057;28;20036;-82
2022/06/05 12:02:30;;;;;;;6.18;3.53;;;23.80;64.90;;;;;;5036469;28;20280;-82
2022/06/05 12:05:00;;;;;;;;;;;23.80;65.20;;;;;;5018056;28;20045;-81
2022/06/05 12:07:27;;;;;;;6.30;4.18;;;23.70;65.40;;;;;;5036185;28;19908;-81
2022/06/05 12:10:00;;;;;;;5.40;4.43;;;23.70;65.50;;;;;;5035134;28;20025;-82
2022/06/05 12:12:56;;;;;;;5.72;4.53;;;23.60;66.20;;;;;;5035707;28;20607;-81
2022/06/05 12:15:23;;;;;;;5.90;3.95;;;23.60;66.60;;;;;;5035356;28;20060;-82
2022/06/05 12:18:05;;;;;;;12.07;5.68;;;23.50;66.90;;;;;;5036656;28;20099;-81
2022/06/05 12:20:43;;;;;;;5.50;4.35;;;23.60;67.80;;;;;;5036545;28;20025;-82
2022/06/05 12:23:09;;;;;;;6.65;5.18;;;23.70;68.40;;;;;;5036204;28;20029;-81
2022/06/05 12:25:48;;;;;;;6.75;5.32;;;23.60;69.80;;;;;;5036130;28;20033;-82
2022/06/05 12:28:23;;;;;;;7.50;5.43;;;23.60;70.70;;;;;;5036785;28;20116;-85
2022/06/05 12:30:51;;;;;;;7.78;5.97;;;23.50;71.40;;;;;;5036704;28;20538;-84
2022/06/05 12:33:39;;;;;;;7.60;6.10;;;23.40;71.90;;;;;;5036540;28;20036;-83
2022/06/05 12:36:12;;;;;;;7.20;6.43;;;23.30;72.60;;;;;;5054313;28;20090;-83
2022/06/05 12:39:17;;;;;;;8.10;6.55;;;23.30;73.20;;;;;;5035900;28;20021;-83
2022/06/05 12:42:07;;;;;;;9.43;6.68;;;23.20;74.30;;;;;;5047909;28;20079;-83
2022/06/05 12:44:41;;;;;;;7.55;6.75;;;23.10;74.40;;;;;;5036122;28;20116;-81
2022/06/05 12:47:34;;;;;;;8.25;6.78;;;23.00;74.60;;;;;;5035842;28;20025;-81
2022/06/05 12:50:05;;;;;;;7.38;6.53;;;23.00;75.30;;;;;;5035561;28;20385;-80
2022/06/05 12:52:41;;;;;;;8.98;7.60;;;22.90;75.60;;;;;;5035475;28;20520;-80
2022/06/05 12:55:20;;;;;;;10.23;7.57;;;22.90;76.20;;;;;;5053444;28;20044;-79
2022/06/05 12:57:46;;;;;;;8.52;7.63;;;22.80;76.50;;;;;;5025973;28;20033;-81
2022/06/05 13:00:30;;;;;;;9.95;7.93;;;22.70;77.20;;;;;;5033409;28;20036;-80
2022/06/05 13:03:35;;;;;;;10.52;8.57;;;22.70;77.30;;;;;;5014348;28;20044;-80
2022/06/05 13:06:07;;;;;;;;;;;22.70;77.70;;;;;;5016089;28;20733;-81
2022/06/05 13:08:54;;;;;;;8.77;7.88;;;22.70;77.80;;;;;;5014075;28;19955;-80
2022/06/05 13:11:19;;;;;;;9.57;8.35;;;22.60;77.70;;;;;;5008592;28;20024;-83
2022/06/05 13:14:07;;;;;;;9.45;8.10;;;22.60;78.10;;;;;;5033144;28;20477;-82
2022/06/05 13:16:45;;;;;;;11.15;8.68;;;22.50;78.90;;;;;;5015209;28;20065;-82
2022/06/05 13:19:13;;;;;;;9.85;8.43;;;22.50;79.20;;;;;;5015709;28;20025;-83
2022/06/05 13:22:10;;;;;;;10.73;8.07;;;22.50;79.40;;;;;;5015462;28;20036;-81
2022/06/05 13:25:03;;;;;;;9.18;8.23;;;22.50;80.10;;;;;;5015369;28;20030;-80
2022/06/05 13:27:53;;;;;;;9.13;8.20;;;22.40;80.20;;;;;;5015210;28;20036;-80
2022/06/05 13:30:24;;;;;;;9.93;8.90;;;22.40;80.50;;;;;;5015199;28;20280;-80
2022/06/05 13:33:04;;;;;;;9.68;8.68;;;22.40;80.80;;;;;;5015284;28;20374;-80
2022/06/05 13:35:54;;;;;;;10.13;7.70;;;22.40;81.80;;;;;;5015313;28;20117;-81
2022/06/05 13:38:25;;;;;;;10.52;8.68;;;22.50;81.80;;;;;;5010352;28;20026;-79
2022/06/05 13:41:18;;;;;;;9.70;8.20;;;22.50;81.80;;;;;;5007636;28;20083;-80
2022/06/05 13:43:54;;;;;;;11.30;9.43;;;22.40;82.30;;;;;;5015697;28;20080;-81